Portada
METAR-TAF:

METAR-TAF

Aeroports :

Port Macquarie, Austràlia

latitud: 31-26-09S, longitud: 152-51-48E, altitud: 5 m

Observació

L'informe es va fer fa 14 hores i 9 minuts, a les 23:50 UTC
Vent 4 kt del Oest
Temperatura 18°C
Humitat 94%
Pressió 1020 hPa
Visibilitat 10 km o més
Núvols disperses a una alçada de 3500 ft
Núvols disperses a una alçada de 4400 ft
Cel cobert a una alçada de 5300 ft

METAR: YPMQ 062350Z AUTO 26004KT 9999 // SCT035 SCT044 OVC053 18/17 Q1020

Hora: 23:59 (13:59 UTC)


TAF: manca

Observacions i pronòstics meteorològics de més de 4000 aeroports (METAR i TAF).

Les estacions disponibles són els punts grocs i vermells al mapa.

Posi el ratolí al punt desitjat per veure el nom de l'estació.

Feu clic per veure les observacions i els pronòstics meteorològics.

Per canviar el mapa: feu clic els botons verds amb una creu de color negre per apropar; al botó verd amb un guió per allunyar la imatge; o en les fletxes verdes per a mapes adjacents.


METAR-TAF: